Koszalin, Poland
Current Conditions -  °F | °C
As of 5:20 AM on Saturday 25 Oct 2014 (Local Time) from EKRN Reporting Station
Overcast Overcast  
Wind Chill: 38°   Ceiling: 900
Heat Index: 46°   Visibility: 3mi
Dew Point: 45°   Wind: 24mph
Humidity: 93%   Direction: 180°S
Pressure: 30.12"   Gusts: NA
Location:  54.19°N, 16.18°E
Report Text: EKRN 250320Z AUTO 18021KT 5000NDV OVC009/// 08/07 Q1020
Loading
Personal Weather Stations






























Interactive Weather Map
Tropical Storm Tracking
New forecast layout! Learn more

10-Day Weather Forecast

Advertisements
Track Severe Weather on mobile